Airport View

Enter AWOS ICAO identifier for current METAR.

ex. KFNL

KPGV 112315Z AUTO 00000KT 10SM CLR 03/02 A3047 RMK AO2

11 Dec 2019 23:10

Frequency: 128.425

Phone: 252-758-6485

Other Area AWOS: KOCW - KETC - KISO - KRWI

TAF KPGV 111727Z 1118/1218 36008KT P6SM BKN025 FM112000 35008KT P6SM SCT030 BKN090 FM120100 33004KT P6SM SCT250 FM121400 03005KT P6SM FEW250 AMD LTD TO CLD VIS AND WIND